sensor_id;sensor_type;location;lat;lon;timestamp;P1;durP1;ratioP1;P2;durP2;ratioP2
5965;SDS011;3009;43.224;27.976;2024-02-14T00:01:32;7.23;;;6.60;;
5965;SDS011;3009;43.224;27.976;2024-02-14T00:04:03;6.60;;;6.00;;
5965;SDS011;3009;43.224;27.976;2024-02-14T00:06:34;7.13;;;6.43;;
5965;SDS011;3009;43.224;27.976;2024-02-14T00:09:06;6.80;;;6.13;;
5965;SDS011;3009;43.224;27.976;2024-02-14T00:11:35;7.27;;;6.57;;
5965;SDS011;3009;43.224;27.976;2024-02-14T00:14:03;7.70;;;7.00;;
5965;SDS011;3009;43.224;27.976;2024-02-14T00:16:33;7.30;;;6.60;;
5965;SDS011;3009;43.224;27.976;2024-02-14T00:19:02;7.97;;;7.17;;
5965;SDS011;3009;43.224;27.976;2024-02-14T00:21:31;8.00;;;7.30;;
5965;SDS011;3009;43.224;27.976;2024-02-14T00:24:02;8.47;;;7.57;;
5965;SDS011;3009;43.224;27.976;2024-02-14T00:26:31;8.37;;;7.47;;
5965;SDS011;3009;43.224;27.976;2024-02-14T00:29:00;9.47;;;7.87;;
5965;SDS011;3009;43.224;27.976;2024-02-14T00:31:29;10.10;;;8.60;;
5965;SDS011;3009;43.224;27.976;2024-02-14T00:33:57;15.90;;;7.70;;
5965;SDS011;3009;43.224;27.976;2024-02-14T00:36:26;11.07;;;8.87;;
5965;SDS011;3009;43.224;27.976;2024-02-14T00:38:55;14.80;;;8.10;;
5965;SDS011;3009;43.224;27.976;2024-02-14T00:41:24;10.27;;;8.00;;
5965;SDS011;3009;43.224;27.976;2024-02-14T00:43:56;12.27;;;9.07;;
5965;SDS011;3009;43.224;27.976;2024-02-14T00:46:24;12.77;;;8.97;;
5965;SDS011;3009;43.224;27.976;2024-02-14T00:48:54;12.70;;;8.50;;
5965;SDS011;3009;43.224;27.976;2024-02-14T00:51:22;12.50;;;8.70;;
5965;SDS011;3009;43.224;27.976;2024-02-14T00:53:51;11.73;;;8.93;;
5965;SDS011;3009;43.224;27.976;2024-02-14T00:56:20;10.87;;;8.97;;
5965;SDS011;3009;43.224;27.976;2024-02-14T00:58:51;11.50;;;9.37;;
5965;SDS011;3009;43.224;27.976;2024-02-14T01:01:20;11.73;;;8.93;;
5965;SDS011;3009;43.224;27.976;2024-02-14T01:03:49;12.67;;;9.93;;
5965;SDS011;3009;43.224;27.976;2024-02-14T01:06:17;12.60;;;9.47;;
5965;SDS011;3009;43.224;27.976;2024-02-14T01:08:46;12.20;;;9.33;;
5965;SDS011;3009;43.224;27.976;2024-02-14T01:11:15;11.80;;;9.10;;
5965;SDS011;3009;43.224;27.976;2024-02-14T01:13:44;14.87;;;9.73;;
5965;SDS011;3009;43.224;27.976;2024-02-14T01:16:14;13.50;;;10.03;;
5965;SDS011;3009;43.224;27.976;2024-02-14T01:18:43;11.20;;;9.10;;
5965;SDS011;3009;43.224;27.976;2024-02-14T01:21:11;12.03;;;9.23;;
5965;SDS011;3009;43.224;27.976;2024-02-14T01:23:40;12.00;;;8.53;;
5965;SDS011;3009;43.224;27.976;2024-02-14T01:26:08;11.37;;;9.37;;
5965;SDS011;3009;43.224;27.976;2024-02-14T01:28:38;10.50;;;8.30;;
5965;SDS011;3009;43.224;27.976;2024-02-14T01:31:08;12.30;;;9.17;;
5965;SDS011;3009;43.224;27.976;2024-02-14T01:33:40;12.33;;;8.60;;
5965;SDS011;3009;43.224;27.976;2024-02-14T01:36:09;11.83;;;8.83;;
5965;SDS011;3009;43.224;27.976;2024-02-14T01:38:37;11.07;;;7.90;;
5965;SDS011;3009;43.224;27.976;2024-02-14T01:41:06;10.00;;;8.23;;
5965;SDS011;3009;43.224;27.976;2024-02-14T01:43:34;10.00;;;8.43;;
5965;SDS011;3009;43.224;27.976;2024-02-14T01:46:04;12.00;;;9.20;;
5965;SDS011;3009;43.224;27.976;2024-02-14T01:48:33;9.10;;;8.20;;
5965;SDS011;3009;43.224;27.976;2024-02-14T01:51:04;10.13;;;8.90;;
5965;SDS011;3009;43.224;27.976;2024-02-14T01:53:36;11.47;;;8.53;;
5965;SDS011;3009;43.224;27.976;2024-02-14T01:56:05;13.20;;;8.67;;
5965;SDS011;3009;43.224;27.976;2024-02-14T01:58:34;10.60;;;8.60;;
5965;SDS011;3009;43.224;27.976;2024-02-14T02:01:05;11.47;;;9.10;;
5965;SDS011;3009;43.224;27.976;2024-02-14T02:03:34;10.13;;;8.60;;
5965;SDS011;3009;43.224;27.976;2024-02-14T02:06:06;14.77;;;8.77;;
5965;SDS011;3009;43.224;27.976;2024-02-14T02:08:34;14.73;;;9.30;;
5965;SDS011;3009;43.224;27.976;2024-02-14T02:11:03;12.57;;;8.70;;
5965;SDS011;3009;43.224;27.976;2024-02-14T02:13:32;10.00;;;9.00;;
5965;SDS011;3009;43.224;27.976;2024-02-14T02:16:01;10.27;;;8.67;;
5965;SDS011;3009;43.224;27.976;2024-02-14T02:18:31;12.93;;;9.10;;
5965;SDS011;3009;43.224;27.976;2024-02-14T02:21:00;9.80;;;8.13;;
5965;SDS011;3009;43.224;27.976;2024-02-14T02:23:32;9.80;;;7.57;;
5965;SDS011;3009;43.224;27.976;2024-02-14T02:26:01;9.60;;;7.63;;
5965;SDS011;3009;43.224;27.976;2024-02-14T02:28:29;9.70;;;8.00;;
5965;SDS011;3009;43.224;27.976;2024-02-14T02:30:58;14.30;;;7.53;;
5965;SDS011;3009;43.224;27.976;2024-02-14T02:33:26;8.20;;;7.40;;
5965;SDS011;3009;43.224;27.976;2024-02-14T02:35:55;8.60;;;7.80;;
5965;SDS011;3009;43.224;27.976;2024-02-14T02:38:24;7.70;;;7.00;;
5965;SDS011;3009;43.224;27.976;2024-02-14T02:40:54;7.33;;;6.73;;
5965;SDS011;3009;43.224;27.976;2024-02-14T02:43:23;7.33;;;6.73;;
5965;SDS011;3009;43.224;27.976;2024-02-14T02:45:51;9.47;;;8.20;;
5965;SDS011;3009;43.224;27.976;2024-02-14T02:48:20;10.20;;;8.57;;
5965;SDS011;3009;43.224;27.976;2024-02-14T02:50:50;9.57;;;8.67;;
5965;SDS011;3009;43.224;27.976;2024-02-14T02:53:18;8.20;;;7.37;;
5965;SDS011;3009;43.224;27.976;2024-02-14T02:55:47;8.27;;;7.57;;
5965;SDS011;3009;43.224;27.976;2024-02-14T02:58:19;7.70;;;6.97;;
5965;SDS011;3009;43.224;27.976;2024-02-14T03:00:48;8.23;;;7.43;;
5965;SDS011;3009;43.224;27.976;2024-02-14T03:03:20;8.30;;;7.50;;
5965;SDS011;3009;43.224;27.976;2024-02-14T03:05:48;6.50;;;5.90;;
5965;SDS011;3009;43.224;27.976;2024-02-14T03:08:17;7.17;;;6.50;;
5965;SDS011;3009;43.224;27.976;2024-02-14T03:10:46;7.17;;;6.47;;
5965;SDS011;3009;43.224;27.976;2024-02-14T03:13:15;7.00;;;6.03;;
5965;SDS011;3009;43.224;27.976;2024-02-14T03:15:45;6.63;;;6.13;;
5965;SDS011;3009;43.224;27.976;2024-02-14T03:18:15;6.73;;;6.20;;
5965;SDS011;3009;43.224;27.976;2024-02-14T03:20:43;6.57;;;6.07;;
5965;SDS011;3009;43.224;27.976;2024-02-14T03:23:12;5.50;;;5.10;;
5965;SDS011;3009;43.224;27.976;2024-02-14T03:25:43;6.83;;;5.73;;
5965;SDS011;3009;43.224;27.976;2024-02-14T03:28:12;7.17;;;5.60;;
5965;SDS011;3009;43.224;27.976;2024-02-14T03:30:41;6.40;;;5.80;;
5965;SDS011;3009;43.224;27.976;2024-02-14T03:33:10;5.93;;;5.50;;
5965;SDS011;3009;43.224;27.976;2024-02-14T03:35:40;5.60;;;5.13;;
5965;SDS011;3009;43.224;27.976;2024-02-14T03:38:09;5.67;;;5.17;;
5965;SDS011;3009;43.224;27.976;2024-02-14T03:40:37;6.50;;;5.90;;
5965;SDS011;3009;43.224;27.976;2024-02-14T03:43:08;5.97;;;5.37;;
5965;SDS011;3009;43.224;27.976;2024-02-14T03:45:38;6.93;;;6.30;;
5965;SDS011;3009;43.224;27.976;2024-02-14T03:48:08;6.10;;;5.50;;
5965;SDS011;3009;43.224;27.976;2024-02-14T03:50:39;6.50;;;5.90;;
5965;SDS011;3009;43.224;27.976;2024-02-14T03:53:09;7.10;;;5.53;;
5965;SDS011;3009;43.224;27.976;2024-02-14T03:55:38;6.17;;;5.67;;
5965;SDS011;3009;43.224;27.976;2024-02-14T03:58:07;6.70;;;6.10;;
5965;SDS011;3009;43.224;27.976;2024-02-14T04:00:35;6.60;;;6.10;;
5965;SDS011;3009;43.224;27.976;2024-02-14T04:03:04;5.50;;;5.00;;
5965;SDS011;3009;43.224;27.976;2024-02-14T04:05:33;6.73;;;6.13;;
5965;SDS011;3009;43.224;27.976;2024-02-14T04:08:05;5.63;;;5.23;;
5965;SDS011;3009;43.224;27.976;2024-02-14T04:10:36;6.23;;;5.70;;
5965;SDS011;3009;43.224;27.976;2024-02-14T04:13:05;6.03;;;4.70;;
5965;SDS011;3009;43.224;27.976;2024-02-14T04:15:34;6.30;;;5.70;;
5965;SDS011;3009;43.224;27.976;2024-02-14T04:18:02;5.90;;;5.40;;
5965;SDS011;3009;43.224;27.976;2024-02-14T04:20:33;6.00;;;5.40;;
5965;SDS011;3009;43.224;27.976;2024-02-14T04:23:02;6.80;;;6.10;;
5965;SDS011;3009;43.224;27.976;2024-02-14T04:25:35;6.67;;;6.07;;
5965;SDS011;3009;43.224;27.976;2024-02-14T04:28:04;6.80;;;6.20;;
5965;SDS011;3009;43.224;27.976;2024-02-14T04:30:32;6.53;;;5.97;;
5965;SDS011;3009;43.224;27.976;2024-02-14T04:33:03;6.13;;;5.60;;
5965;SDS011;3009;43.224;27.976;2024-02-14T04:35:38;6.20;;;5.60;;
5965;SDS011;3009;43.224;27.976;2024-02-14T04:38:07;6.57;;;5.97;;
5965;SDS011;3009;43.224;27.976;2024-02-14T04:40:37;6.90;;;6.30;;
5965;SDS011;3009;43.224;27.976;2024-02-14T04:43:06;6.23;;;5.00;;
5965;SDS011;3009;43.224;27.976;2024-02-14T04:45:34;6.10;;;5.60;;
5965;SDS011;3009;43.224;27.976;2024-02-14T04:48:04;5.77;;;5.30;;
5965;SDS011;3009;43.224;27.976;2024-02-14T04:50:34;6.37;;;5.77;;
5965;SDS011;3009;43.224;27.976;2024-02-14T04:53:04;6.03;;;5.17;;
5965;SDS011;3009;43.224;27.976;2024-02-14T04:55:33;4.73;;;4.30;;
5965;SDS011;3009;43.224;27.976;2024-02-14T04:58:04;5.30;;;4.80;;
5965;SDS011;3009;43.224;27.976;2024-02-14T05:00:33;4.80;;;4.50;;
5965;SDS011;3009;43.224;27.976;2024-02-14T05:03:01;5.27;;;4.80;;
5965;SDS011;3009;43.224;27.976;2024-02-14T05:05:30;4.80;;;4.40;;
5965;SDS011;3009;43.224;27.976;2024-02-14T05:08:00;5.20;;;4.70;;
5965;SDS011;3009;43.224;27.976;2024-02-14T05:10:29;5.67;;;4.77;;
5965;SDS011;3009;43.224;27.976;2024-02-14T05:12:58;4.80;;;4.37;;
5965;SDS011;3009;43.224;27.976;2024-02-14T05:15:29;8.53;;;5.23;;
5965;SDS011;3009;43.224;27.976;2024-02-14T05:17:57;5.87;;;5.00;;
5965;SDS011;3009;43.224;27.976;2024-02-14T05:20:26;5.97;;;5.40;;
5965;SDS011;3009;43.224;27.976;2024-02-14T05:22:54;5.37;;;4.87;;
5965;SDS011;3009;43.224;27.976;2024-02-14T05:25:23;5.43;;;4.60;;
5965;SDS011;3009;43.224;27.976;2024-02-14T05:27:52;5.53;;;5.03;;
5965;SDS011;3009;43.224;27.976;2024-02-14T05:30:20;7.40;;;5.10;;
5965;SDS011;3009;43.224;27.976;2024-02-14T05:32:50;5.87;;;4.57;;
5965;SDS011;3009;43.224;27.976;2024-02-14T05:35:19;5.10;;;4.60;;
5965;SDS011;3009;43.224;27.976;2024-02-14T05:37:50;5.23;;;4.70;;
5965;SDS011;3009;43.224;27.976;2024-02-14T05:40:18;4.90;;;4.57;;
5965;SDS011;3009;43.224;27.976;2024-02-14T05:42:47;6.20;;;5.57;;
5965;SDS011;3009;43.224;27.976;2024-02-14T05:45:16;5.70;;;4.07;;
5965;SDS011;3009;43.224;27.976;2024-02-14T05:47:44;5.17;;;4.60;;
5965;SDS011;3009;43.224;27.976;2024-02-14T05:50:15;9.23;;;5.20;;
5965;SDS011;3009;43.224;27.976;2024-02-14T05:52:43;6.83;;;5.27;;
5965;SDS011;3009;43.224;27.976;2024-02-14T05:55:12;5.47;;;4.90;;
5965;SDS011;3009;43.224;27.976;2024-02-14T05:57:41;7.87;;;6.60;;
5965;SDS011;3009;43.224;27.976;2024-02-14T06:00:10;5.37;;;4.90;;
5965;SDS011;3009;43.224;27.976;2024-02-14T06:02:39;5.70;;;5.20;;
5965;SDS011;3009;43.224;27.976;2024-02-14T06:05:08;5.60;;;5.17;;
5965;SDS011;3009;43.224;27.976;2024-02-14T06:07:39;5.10;;;4.73;;
5965;SDS011;3009;43.224;27.976;2024-02-14T06:10:08;5.07;;;4.60;;
5965;SDS011;3009;43.224;27.976;2024-02-14T06:12:37;6.57;;;5.20;;
5965;SDS011;3009;43.224;27.976;2024-02-14T06:15:07;5.10;;;4.80;;
5965;SDS011;3009;43.224;27.976;2024-02-14T06:17:36;6.40;;;4.90;;
5965;SDS011;3009;43.224;27.976;2024-02-14T06:20:06;5.47;;;5.07;;
5965;SDS011;3009;43.224;27.976;2024-02-14T06:22:36;8.47;;;5.23;;
5965;SDS011;3009;43.224;27.976;2024-02-14T06:25:17;4.80;;;4.47;;
5965;SDS011;3009;43.224;27.976;2024-02-14T06:27:45;5.30;;;4.90;;
5965;SDS011;3009;43.224;27.976;2024-02-14T06:30:14;5.23;;;4.60;;
5965;SDS011;3009;43.224;27.976;2024-02-14T06:32:44;5.50;;;5.00;;
5965;SDS011;3009;43.224;27.976;2024-02-14T06:35:13;5.53;;;5.13;;
5965;SDS011;3009;43.224;27.976;2024-02-14T06:37:46;5.00;;;4.63;;
5965;SDS011;3009;43.224;27.976;2024-02-14T06:40:30;5.33;;;4.87;;
5965;SDS011;3009;43.224;27.976;2024-02-14T06:42:58;4.83;;;4.43;;
5965;SDS011;3009;43.224;27.976;2024-02-14T06:45:27;6.20;;;5.60;;
5965;SDS011;3009;43.224;27.976;2024-02-14T06:47:56;10.33;;;5.90;;
5965;SDS011;3009;43.224;27.976;2024-02-14T06:50:25;9.00;;;6.10;;
5965;SDS011;3009;43.224;27.976;2024-02-14T06:52:55;5.47;;;5.07;;
5965;SDS011;3009;43.224;27.976;2024-02-14T06:55:27;6.40;;;5.80;;
5965;SDS011;3009;43.224;27.976;2024-02-14T06:57:58;5.10;;;4.70;;
5965;SDS011;3009;43.224;27.976;2024-02-14T07:00:27;5.90;;;5.37;;
5965;SDS011;3009;43.224;27.976;2024-02-14T07:02:56;5.40;;;5.00;;
5965;SDS011;3009;43.224;27.976;2024-02-14T07:05:26;7.27;;;5.90;;
5965;SDS011;3009;43.224;27.976;2024-02-14T07:07:56;5.80;;;5.30;;
5965;SDS011;3009;43.224;27.976;2024-02-14T07:10:24;5.90;;;5.40;;
5965;SDS011;3009;43.224;27.976;2024-02-14T07:12:53;5.47;;;5.07;;
5965;SDS011;3009;43.224;27.976;2024-02-14T07:15:23;4.80;;;4.50;;
5965;SDS011;3009;43.224;27.976;2024-02-14T07:17:55;5.63;;;4.90;;
5965;SDS011;3009;43.224;27.976;2024-02-14T07:20:25;4.90;;;4.50;;
5965;SDS011;3009;43.224;27.976;2024-02-14T07:22:54;5.13;;;4.70;;
5965;SDS011;3009;43.224;27.976;2024-02-14T07:27:56;4.90;;;4.50;;
5965;SDS011;3009;43.224;27.976;2024-02-14T07:30:26;4.73;;;4.23;;
5965;SDS011;3009;43.224;27.976;2024-02-14T07:32:54;9.50;;;5.30;;
5965;SDS011;3009;43.224;27.976;2024-02-14T07:35:23;6.83;;;4.13;;
5965;SDS011;3009;43.224;27.976;2024-02-14T07:37:52;3.87;;;3.60;;
5965;SDS011;3009;43.224;27.976;2024-02-14T07:40:20;4.10;;;3.80;;
5965;SDS011;3009;43.224;27.976;2024-02-14T07:42:49;4.17;;;3.87;;
5965;SDS011;3009;43.224;27.976;2024-02-14T07:45:18;4.63;;;4.23;;
5965;SDS011;3009;43.224;27.976;2024-02-14T07:47:48;5.07;;;4.67;;
5965;SDS011;3009;43.224;27.976;2024-02-14T07:50:17;5.00;;;4.50;;
5965;SDS011;3009;43.224;27.976;2024-02-14T07:52:46;13.17;;;5.53;;
5965;SDS011;3009;43.224;27.976;2024-02-14T07:55:15;5.50;;;4.67;;
5965;SDS011;3009;43.224;27.976;2024-02-14T07:57:44;4.90;;;4.43;;
5965;SDS011;3009;43.224;27.976;2024-02-14T08:00:13;6.27;;;4.70;;
5965;SDS011;3009;43.224;27.976;2024-02-14T08:02:50;4.67;;;4.27;;
5965;SDS011;3009;43.224;27.976;2024-02-14T08:05:19;4.33;;;4.03;;
5965;SDS011;3009;43.224;27.976;2024-02-14T08:07:47;4.30;;;3.90;;
5965;SDS011;3009;43.224;27.976;2024-02-14T08:10:16;6.03;;;4.47;;
5965;SDS011;3009;43.224;27.976;2024-02-14T08:12:45;3.93;;;3.63;;
5965;SDS011;3009;43.224;27.976;2024-02-14T08:15:15;5.47;;;3.70;;
5965;SDS011;3009;43.224;27.976;2024-02-14T08:17:44;3.30;;;3.10;;
5965;SDS011;3009;43.224;27.976;2024-02-14T08:20:16;6.10;;;3.70;;
5965;SDS011;3009;43.224;27.976;2024-02-14T08:22:44;4.00;;;3.70;;
5965;SDS011;3009;43.224;27.976;2024-02-14T08:25:13;3.83;;;3.50;;
5965;SDS011;3009;43.224;27.976;2024-02-14T08:27:42;3.30;;;3.10;;
5965;SDS011;3009;43.224;27.976;2024-02-14T08:30:11;3.17;;;2.87;;
5965;SDS011;3009;43.224;27.976;2024-02-14T08:32:40;5.90;;;3.20;;
5965;SDS011;3009;43.224;27.976;2024-02-14T08:35:09;3.07;;;2.87;;
5965;SDS011;3009;43.224;27.976;2024-02-14T08:37:41;3.10;;;2.90;;
5965;SDS011;3009;43.224;27.976;2024-02-14T08:40:10;3.20;;;3.00;;
5965;SDS011;3009;43.224;27.976;2024-02-14T08:42:39;3.53;;;3.33;;
5965;SDS011;3009;43.224;27.976;2024-02-14T08:45:08;2.97;;;2.87;;
5965;SDS011;3009;43.224;27.976;2024-02-14T08:47:37;3.00;;;2.70;;
5965;SDS011;3009;43.224;27.976;2024-02-14T08:50:06;2.80;;;2.70;;
5965;SDS011;3009;43.224;27.976;2024-02-14T08:52:35;3.70;;;3.30;;
5965;SDS011;3009;43.224;27.976;2024-02-14T08:55:06;3.23;;;3.00;;
5965;SDS011;3009;43.224;27.976;2024-02-14T08:57:41;5.13;;;2.83;;
5965;SDS011;3009;43.224;27.976;2024-02-14T09:00:10;3.30;;;3.10;;
5965;SDS011;3009;43.224;27.976;2024-02-14T09:02:41;3.63;;;3.43;;
5965;SDS011;3009;43.224;27.976;2024-02-14T09:05:10;3.07;;;2.90;;
5965;SDS011;3009;43.224;27.976;2024-02-14T09:07:38;3.40;;;3.10;;
5965;SDS011;3009;43.224;27.976;2024-02-14T09:10:10;2.43;;;2.30;;
5965;SDS011;3009;43.224;27.976;2024-02-14T09:12:39;3.00;;;2.80;;
5965;SDS011;3009;43.224;27.976;2024-02-14T09:15:09;2.80;;;2.60;;
5965;SDS011;3009;43.224;27.976;2024-02-14T09:17:38;3.10;;;2.90;;
5965;SDS011;3009;43.224;27.976;2024-02-14T09:20:08;2.87;;;2.77;;
5965;SDS011;3009;43.224;27.976;2024-02-14T09:22:41;3.77;;;3.47;;
5965;SDS011;3009;43.224;27.976;2024-02-14T09:25:11;3.23;;;3.03;;
5965;SDS011;3009;43.224;27.976;2024-02-14T09:27:40;3.50;;;3.20;;
5965;SDS011;3009;43.224;27.976;2024-02-14T09:30:10;3.73;;;3.50;;
5965;SDS011;3009;43.224;27.976;2024-02-14T09:32:53;3.50;;;3.30;;
5965;SDS011;3009;43.224;27.976;2024-02-14T09:35:23;3.40;;;3.20;;
5965;SDS011;3009;43.224;27.976;2024-02-14T09:37:52;3.77;;;3.47;;
5965;SDS011;3009;43.224;27.976;2024-02-14T09:40:22;3.00;;;2.80;;
5965;SDS011;3009;43.224;27.976;2024-02-14T09:42:53;2.87;;;2.67;;
5965;SDS011;3009;43.224;27.976;2024-02-14T09:45:24;3.00;;;2.90;;
5965;SDS011;3009;43.224;27.976;2024-02-14T09:47:53;3.10;;;2.90;;
5965;SDS011;3009;43.224;27.976;2024-02-14T09:50:23;4.50;;;2.73;;
5965;SDS011;3009;43.224;27.976;2024-02-14T09:52:52;5.20;;;2.67;;
5965;SDS011;3009;43.224;27.976;2024-02-14T09:55:23;2.40;;;2.30;;
5965;SDS011;3009;43.224;27.976;2024-02-14T09:57:53;2.50;;;2.40;;
5965;SDS011;3009;43.224;27.976;2024-02-14T10:00:22;2.70;;;2.50;;
5965;SDS011;3009;43.224;27.976;2024-02-14T10:02:51;2.90;;;2.70;;
5965;SDS011;3009;43.224;27.976;2024-02-14T10:05:20;2.90;;;2.80;;
5965;SDS011;3009;43.224;27.976;2024-02-14T10:07:48;2.83;;;2.73;;
5965;SDS011;3009;43.224;27.976;2024-02-14T10:10:18;7.60;;;2.63;;
5965;SDS011;3009;43.224;27.976;2024-02-14T10:12:49;2.87;;;2.40;;
5965;SDS011;3009;43.224;27.976;2024-02-14T10:15:18;3.33;;;3.13;;
5965;SDS011;3009;43.224;27.976;2024-02-14T10:17:46;2.90;;;2.77;;
5965;SDS011;3009;43.224;27.976;2024-02-14T10:20:16;2.77;;;2.67;;
5965;SDS011;3009;43.224;27.976;2024-02-14T10:22:45;3.00;;;2.90;;
5965;SDS011;3009;43.224;27.976;2024-02-14T10:25:14;8.73;;;3.30;;
5965;SDS011;3009;43.224;27.976;2024-02-14T10:27:45;2.70;;;2.60;;
5965;SDS011;3009;43.224;27.976;2024-02-14T10:30:17;3.13;;;2.90;;
5965;SDS011;3009;43.224;27.976;2024-02-14T10:32:46;5.47;;;2.90;;
5965;SDS011;3009;43.224;27.976;2024-02-14T10:38:16;4.00;;;3.50;;
5965;SDS011;3009;43.224;27.976;2024-02-14T10:40:47;3.40;;;3.20;;
5965;SDS011;3009;43.224;27.976;2024-02-14T10:43:16;3.10;;;2.90;;
5965;SDS011;3009;43.224;27.976;2024-02-14T10:45:46;3.17;;;3.03;;
5965;SDS011;3009;43.224;27.976;2024-02-14T10:48:16;2.50;;;2.30;;
5965;SDS011;3009;43.224;27.976;2024-02-14T10:50:47;3.07;;;2.90;;
5965;SDS011;3009;43.224;27.976;2024-02-14T10:53:18;2.80;;;2.70;;
5965;SDS011;3009;43.224;27.976;2024-02-14T10:55:50;3.03;;;2.83;;
5965;SDS011;3009;43.224;27.976;2024-02-14T10:58:20;3.03;;;2.83;;
5965;SDS011;3009;43.224;27.976;2024-02-14T11:00:53;2.90;;;2.70;;
5965;SDS011;3009;43.224;27.976;2024-02-14T11:03:22;4.07;;;3.67;;
5965;SDS011;3009;43.224;27.976;2024-02-14T11:05:53;5.30;;;3.70;;
5965;SDS011;3009;43.224;27.976;2024-02-14T11:08:28;3.83;;;3.53;;
5965;SDS011;3009;43.224;27.976;2024-02-14T11:10:58;3.33;;;3.17;;
5965;SDS011;3009;43.224;27.976;2024-02-14T11:13:28;3.23;;;2.60;;
5965;SDS011;3009;43.224;27.976;2024-02-14T11:16:01;2.80;;;2.70;;
5965;SDS011;3009;43.224;27.976;2024-02-14T11:18:31;2.97;;;2.70;;
5965;SDS011;3009;43.224;27.976;2024-02-14T11:21:03;2.90;;;2.70;;
5965;SDS011;3009;43.224;27.976;2024-02-14T11:23:32;2.70;;;2.50;;
5965;SDS011;3009;43.224;27.976;2024-02-14T11:26:00;2.90;;;2.70;;
5965;SDS011;3009;43.224;27.976;2024-02-14T11:28:29;3.23;;;2.97;;
5965;SDS011;3009;43.224;27.976;2024-02-14T11:30:58;2.70;;;2.60;;
5965;SDS011;3009;43.224;27.976;2024-02-14T11:33:31;3.90;;;3.10;;
5965;SDS011;3009;43.224;27.976;2024-02-14T11:36:07;2.53;;;2.43;;
5965;SDS011;3009;43.224;27.976;2024-02-14T11:38:40;2.43;;;2.33;;
5965;SDS011;3009;43.224;27.976;2024-02-14T11:41:10;3.20;;;2.90;;
5965;SDS011;3009;43.224;27.976;2024-02-14T11:43:39;2.53;;;2.43;;
5965;SDS011;3009;43.224;27.976;2024-02-14T11:46:08;2.77;;;2.67;;
5965;SDS011;3009;43.224;27.976;2024-02-14T11:48:37;2.30;;;2.20;;
5965;SDS011;3009;43.224;27.976;2024-02-14T11:51:07;4.37;;;3.20;;
5965;SDS011;3009;43.224;27.976;2024-02-14T11:53:37;3.40;;;3.10;;
5965;SDS011;3009;43.224;27.976;2024-02-14T11:56:07;3.50;;;3.20;;
5965;SDS011;3009;43.224;27.976;2024-02-14T11:58:36;5.40;;;2.67;;
5965;SDS011;3009;43.224;27.976;2024-02-14T12:01:04;2.43;;;2.33;;
5965;SDS011;3009;43.224;27.976;2024-02-14T12:03:35;3.60;;;3.00;;
5965;SDS011;3009;43.224;27.976;2024-02-14T12:06:05;4.30;;;3.30;;
5965;SDS011;3009;43.224;27.976;2024-02-14T12:08:35;5.03;;;2.30;;
5965;SDS011;3009;43.224;27.976;2024-02-14T12:11:04;3.17;;;2.60;;
5965;SDS011;3009;43.224;27.976;2024-02-14T12:13:33;5.53;;;2.93;;
5965;SDS011;3009;43.224;27.976;2024-02-14T12:16:04;3.23;;;2.27;;
5965;SDS011;3009;43.224;27.976;2024-02-14T12:18:36;2.70;;;2.60;;
5965;SDS011;3009;43.224;27.976;2024-02-14T12:21:06;2.30;;;2.20;;
5965;SDS011;3009;43.224;27.976;2024-02-14T12:23:35;2.53;;;2.33;;
5965;SDS011;3009;43.224;27.976;2024-02-14T12:26:04;2.30;;;2.20;;
5965;SDS011;3009;43.224;27.976;2024-02-14T12:28:33;2.90;;;2.70;;
5965;SDS011;3009;43.224;27.976;2024-02-14T12:31:04;3.47;;;2.80;;
5965;SDS011;3009;43.224;27.976;2024-02-14T12:33:32;3.17;;;2.97;;
5965;SDS011;3009;43.224;27.976;2024-02-14T12:36:03;2.73;;;2.53;;
5965;SDS011;3009;43.224;27.976;2024-02-14T12:38:33;3.10;;;2.90;;
5965;SDS011;3009;43.224;27.976;2024-02-14T12:41:02;2.97;;;2.87;;
5965;SDS011;3009;43.224;27.976;2024-02-14T12:43:30;2.50;;;2.30;;
5965;SDS011;3009;43.224;27.976;2024-02-14T12:45:59;2.47;;;2.37;;
5965;SDS011;3009;43.224;27.976;2024-02-14T12:48:28;2.40;;;2.30;;
5965;SDS011;3009;43.224;27.976;2024-02-14T12:50:56;2.47;;;2.37;;
5965;SDS011;3009;43.224;27.976;2024-02-14T12:53:26;3.70;;;2.53;;
5965;SDS011;3009;43.224;27.976;2024-02-14T12:55:55;2.60;;;2.40;;
5965;SDS011;3009;43.224;27.976;2024-02-14T12:58:23;3.20;;;2.97;;
5965;SDS011;3009;43.224;27.976;2024-02-14T13:00:52;3.00;;;2.80;;
5965;SDS011;3009;43.224;27.976;2024-02-14T13:03:21;3.60;;;3.10;;
5965;SDS011;3009;43.224;27.976;2024-02-14T13:05:49;2.90;;;2.80;;
5965;SDS011;3009;43.224;27.976;2024-02-14T13:08:20;2.70;;;2.50;;
5965;SDS011;3009;43.224;27.976;2024-02-14T13:10:51;3.13;;;2.93;;
5965;SDS011;3009;43.224;27.976;2024-02-14T13:13:20;5.87;;;2.90;;
5965;SDS011;3009;43.224;27.976;2024-02-14T13:15:48;3.40;;;3.03;;
5965;SDS011;3009;43.224;27.976;2024-02-14T13:18:17;3.00;;;2.80;;
5965;SDS011;3009;43.224;27.976;2024-02-14T13:20:46;3.40;;;2.97;;
5965;SDS011;3009;43.224;27.976;2024-02-14T13:23:17;2.97;;;2.77;;
5965;SDS011;3009;43.224;27.976;2024-02-14T13:25:45;3.17;;;2.97;;
5965;SDS011;3009;43.224;27.976;2024-02-14T13:28:15;3.37;;;3.13;;
5965;SDS011;3009;43.224;27.976;2024-02-14T13:30:44;3.43;;;3.20;;
5965;SDS011;3009;43.224;27.976;2024-02-14T13:33:14;3.87;;;3.50;;
5965;SDS011;3009;43.224;27.976;2024-02-14T13:35:42;3.30;;;3.10;;
5965;SDS011;3009;43.224;27.976;2024-02-14T13:38:11;4.07;;;3.77;;
5965;SDS011;3009;43.224;27.976;2024-02-14T13:40:39;3.93;;;3.33;;
5965;SDS011;3009;43.224;27.976;2024-02-14T13:43:08;5.87;;;5.10;;
5965;SDS011;3009;43.224;27.976;2024-02-14T13:45:44;4.67;;;4.27;;
5965;SDS011;3009;43.224;27.976;2024-02-14T13:48:14;4.73;;;3.03;;
5965;SDS011;3009;43.224;27.976;2024-02-14T13:50:43;3.87;;;3.17;;
5965;SDS011;3009;43.224;27.976;2024-02-14T13:53:11;3.67;;;3.40;;
5965;SDS011;3009;43.224;27.976;2024-02-14T13:55:40;3.73;;;3.43;;
5965;SDS011;3009;43.224;27.976;2024-02-14T13:58:08;3.47;;;3.03;;
5965;SDS011;3009;43.224;27.976;2024-02-14T14:00:42;3.40;;;3.20;;
5965;SDS011;3009;43.224;27.976;2024-02-14T14:03:12;6.83;;;3.60;;
5965;SDS011;3009;43.224;27.976;2024-02-14T14:05:40;7.23;;;3.37;;
5965;SDS011;3009;43.224;27.976;2024-02-14T14:08:09;4.00;;;3.70;;
5965;SDS011;3009;43.224;27.976;2024-02-14T14:10:37;4.40;;;4.10;;
5965;SDS011;3009;43.224;27.976;2024-02-14T14:13:06;6.80;;;5.37;;
5965;SDS011;3009;43.224;27.976;2024-02-14T14:15:35;6.50;;;4.30;;
5965;SDS011;3009;43.224;27.976;2024-02-14T14:18:05;6.37;;;5.33;;
5965;SDS011;3009;43.224;27.976;2024-02-14T14:20:35;5.67;;;5.17;;
5965;SDS011;3009;43.224;27.976;2024-02-14T14:23:04;6.10;;;4.67;;
5965;SDS011;3009;43.224;27.976;2024-02-14T14:25:32;4.00;;;3.70;;
5965;SDS011;3009;43.224;27.976;2024-02-14T14:28:01;4.03;;;3.73;;
5965;SDS011;3009;43.224;27.976;2024-02-14T14:30:34;4.50;;;4.00;;
5965;SDS011;3009;43.224;27.976;2024-02-14T14:33:02;12.93;;;4.57;;
5965;SDS011;3009;43.224;27.976;2024-02-14T14:35:33;4.87;;;3.43;;
5965;SDS011;3009;43.224;27.976;2024-02-14T14:38:02;3.77;;;3.57;;
5965;SDS011;3009;43.224;27.976;2024-02-14T14:40:31;4.23;;;3.93;;
5965;SDS011;3009;43.224;27.976;2024-02-14T14:43:00;4.07;;;3.77;;
5965;SDS011;3009;43.224;27.976;2024-02-14T14:45:28;6.10;;;3.80;;
5965;SDS011;3009;43.224;27.976;2024-02-14T14:47:58;6.23;;;5.27;;
5965;SDS011;3009;43.224;27.976;2024-02-14T14:50:28;4.30;;;3.90;;
5965;SDS011;3009;43.224;27.976;2024-02-14T14:52:59;6.77;;;3.60;;
5965;SDS011;3009;43.224;27.976;2024-02-14T14:55:50;5.57;;;5.07;;
5965;SDS011;3009;43.224;27.976;2024-02-14T14:58:23;3.90;;;3.37;;
5965;SDS011;3009;43.224;27.976;2024-02-14T15:00:54;3.67;;;3.00;;
5965;SDS011;3009;43.224;27.976;2024-02-14T15:03:25;3.70;;;3.50;;
5965;SDS011;3009;43.224;27.976;2024-02-14T15:05:54;4.70;;;2.97;;
5965;SDS011;3009;43.224;27.976;2024-02-14T15:08:25;8.60;;;2.97;;
5965;SDS011;3009;43.224;27.976;2024-02-14T15:10:55;3.07;;;2.87;;
5965;SDS011;3009;43.224;27.976;2024-02-14T15:13:24;4.03;;;3.30;;
5965;SDS011;3009;43.224;27.976;2024-02-14T15:15:54;3.33;;;3.13;;
5965;SDS011;3009;43.224;27.976;2024-02-14T15:18:24;4.43;;;3.20;;
5965;SDS011;3009;43.224;27.976;2024-02-14T15:20:53;4.33;;;3.80;;